Time;durP1;ratioP1;P1;durP2;ratioP2;P2;SDS_P1;SDS_P2;PMS_P1;PMS_P2;Temp;Humidity;BMP_temperature;BMP_pressure;BME280_temperature;BME280_humidity;BME280_pressure;Samples;Min_cycle;Max_cycle;Signal;HPM_P1;HPM_P2
2022/01/21 00:01:37;;;;;;;132.57;92.55;;;;;;;;;;5109073;27;21200;-81
2022/01/21 00:04:04;;;;;;;115.03;77.03;;;;;;;;;;5104738;27;20058;-76
2022/01/21 00:06:31;;;;;;;99.93;57.55;;;;;;;;;;5108606;27;20600;-66
2022/01/21 00:08:57;;;;;;;94.68;57.25;;;;;;;;;;5107996;28;20071;-74
2022/01/21 00:11:25;;;;;;;89.68;57.28;;;;;;;;;;5087452;28;20071;-67
2022/01/21 00:13:52;;;;;;;82.85;51.05;;;;;;;;;;5100360;28;20415;-75
2022/01/21 00:16:20;;;;;;;76.07;46.83;;;;;;;;;;5107910;27;20058;-64
2022/01/21 00:19:26;;;;;;;69.57;43.25;;;;;;;;;;5107202;27;20478;-67
2022/01/21 00:30:13;;;;;;;50.30;27.50;;;;;;;;;;5108828;27;19939;-65
2022/01/21 00:32:43;;;;;;;46.03;23.42;;;;;;;;;;5106710;27;20956;-79
2022/01/21 00:35:10;;;;;;;31.00;20.75;;;;;;;;;;5106389;27;20039;-78
2022/01/21 00:37:37;;;;;;;37.70;20.38;;;;;;;;;;5109781;27;20078;-79
2022/01/21 00:40:07;;;;;;;30.85;18.75;;;;;;;;;;5109514;27;20112;-78
2022/01/21 00:45:00;;;;;;;28.70;16.90;;;;;;;;;;5105063;27;20601;-63
2022/01/21 00:47:29;;;;;;;24.67;15.38;;;;;;;;;;5106992;27;20485;-70
2022/01/21 00:49:56;;;;;;;31.95;16.52;;;;;;;;;;5108894;27;20631;-70
2022/01/21 00:52:23;;;;;;;28.08;16.80;;;;;;;;;;5109845;27;20135;-79
2022/01/21 00:54:49;;;;;;;26.52;16.40;;;;;;;;;;5106390;27;20196;-65
2022/01/21 00:57:15;;;;;;;27.48;16.80;;;;;;;;;;5110832;27;20137;-71
2022/01/21 00:59:41;;;;;;;25.85;16.38;;;;;;;;;;5105383;27;20047;-79
2022/01/21 01:02:07;;;;;;;27.25;17.05;;;;;;;;;;5110540;27;20051;-77
2022/01/21 01:04:34;;;;;;;24.98;15.02;;;;;;;;;;5102024;27;21476;-68
2022/01/21 01:07:00;;;;;;;27.92;15.40;;;;;;;;;;5107636;27;20502;-67
2022/01/21 01:09:26;;;;;;;22.05;16.23;;;;;;;;;;5105359;27;20100;-68
2022/01/21 01:20:04;;;;;;;22.50;14.45;;;;;;;;;;5105966;27;20062;-66
2022/01/21 01:27:51;;;;;;;25.90;13.68;;;;;;;;;;5105479;27;20124;-63
2022/01/21 01:30:20;;;;;;;24.00;14.23;;;;;;;;;;5104111;27;20051;-72
2022/01/21 01:32:48;;;;;;;23.05;13.98;;;;;;;;;;5107705;27;20055;-68
2022/01/21 01:35:17;;;;;;;25.63;13.57;;;;;;;;;;5106518;27;20472;-77
2022/01/21 01:50:40;;;;;;;19.63;12.40;;;;;;;;;;5106295;27;20048;-68
2022/01/21 01:53:09;;;;;;;18.35;12.57;;;;;;;;;;5101509;27;20059;-81
2022/01/21 01:55:36;;;;;;;20.42;13.27;;;;;;;;;;5105727;27;20051;-75
2022/01/21 01:58:03;;;;;;;21.90;13.00;;;;;;;;;;5106674;27;20060;-71
2022/01/21 02:00:30;;;;;;;24.15;12.93;;;;;;;;;;5107401;27;20071;-72
2022/01/21 02:03:07;;;;;;;20.17;12.63;;;;;;;;;;5102682;27;20047;-65
2022/01/21 02:05:33;;;;;;;22.67;13.30;;;;;;;;;;5106814;27;20062;-79
2022/01/21 02:08:00;;;;;;;23.38;12.15;;;;;;;;;;5106894;27;20056;-77
2022/01/21 02:10:26;;;;;;;17.38;12.15;;;;;;;;;;5107395;27;20425;-65
2022/01/21 02:13:03;;;;;;;16.65;12.50;;;;;;;;;;5104757;27;20707;-76
2022/01/21 02:15:30;;;;;;;14.85;11.07;;;;;;;;;;5107015;27;20059;-64
2022/01/21 02:23:27;;;;;;;16.98;10.85;;;;;;;;;;5101398;27;20063;-76
2022/01/21 02:25:54;;;;;;;19.20;10.85;;;;;;;;;;5102609;27;20167;-67
2022/01/21 02:28:20;;;;;;;15.40;9.90;;;;;;;;;;5090472;27;20536;-70
2022/01/21 02:30:57;;;;;;;14.30;10.30;;;;;;;;;;5108741;27;20407;-71
2022/01/21 02:33:25;;;;;;;14.18;9.80;;;;;;;;;;5101003;27;20058;-64
2022/01/21 02:35:51;;;;;;;15.27;10.77;;;;;;;;;;5088288;27;20059;-63
2022/01/21 02:38:18;;;;;;;20.08;11.35;;;;;;;;;;5104301;27;20377;-72
2022/01/21 02:40:45;;;;;;;25.50;13.20;;;;;;;;;;5105656;27;20369;-69
2022/01/21 02:43:12;;;;;;;17.67;12.15;;;;;;;;;;5100101;27;20097;-72
2022/01/21 02:45:40;;;;;;;17.50;12.60;;;;;;;;;;5105841;27;20051;-69
2022/01/21 02:48:09;;;;;;;20.45;13.18;;;;;;;;;;5106071;27;20059;-77
2022/01/21 02:50:35;;;;;;;23.38;13.80;;;;;;;;;;5106003;27;20055;-79
2022/01/21 02:55:46;;;;;;;24.15;12.65;;;;;;;;;;5103143;27;20856;-68
2022/01/21 02:58:12;;;;;;;17.67;12.93;;;;;;;;;;5109077;27;20039;-80
2022/01/21 03:00:38;;;;;;;21.30;12.77;;;;;;;;;;5105804;27;20050;-78
2022/01/21 03:03:05;;;;;;;21.15;12.90;;;;;;;;;;5100353;27;20048;-81
2022/01/21 03:05:34;;;;;;;21.10;13.65;;;;;;;;;;5105106;27;20066;-65
2022/01/21 03:08:00;;;;;;;18.02;12.52;;;;;;;;;;5090884;27;20066;-71
2022/01/21 03:10:27;;;;;;;21.30;13.43;;;;;;;;;;5107996;27;20055;-73
2022/01/21 03:12:53;;;;;;;20.40;12.25;;;;;;;;;;5114003;27;20046;-79
2022/01/21 03:15:20;;;;;;;19.02;11.70;;;;;;;;;;5110686;27;20051;-75
2022/01/21 03:17:46;;;;;;;19.85;12.00;;;;;;;;;;5111548;27;20054;-70
2022/01/21 03:20:12;;;;;;;16.58;11.35;;;;;;;;;;5107165;27;20103;-75
2022/01/21 03:22:39;;;;;;;20.35;11.50;;;;;;;;;;5102405;27;20059;-74
2022/01/21 03:25:05;;;;;;;19.08;11.75;;;;;;;;;;5084899;27;20043;-77
2022/01/21 03:27:32;;;;;;;24.63;11.52;;;;;;;;;;5100423;27;20405;-64
2022/01/21 03:29:59;;;;;;;19.73;11.80;;;;;;;;;;5103643;27;20423;-65
2022/01/21 03:32:25;;;;;;;20.48;11.40;;;;;;;;;;5102469;27;21335;-78
2022/01/21 03:34:51;;;;;;;20.90;11.75;;;;;;;;;;5098192;27;20035;-65
2022/01/21 03:37:18;;;;;;;16.80;11.02;;;;;;;;;;5104353;27;20122;-70
2022/01/21 03:39:44;;;;;;;16.98;11.45;;;;;;;;;;5106909;27;20077;-75
2022/01/21 03:42:10;;;;;;;17.80;10.82;;;;;;;;;;5087679;27;20500;-78
2022/01/21 03:44:36;;;;;;;25.45;11.77;;;;;;;;;;5103613;27;20176;-70
2022/01/21 03:47:03;;;;;;;21.13;11.75;;;;;;;;;;5106159;27;20060;-76
2022/01/21 03:49:36;;;;;;;17.63;11.43;;;;;;;;;;5082717;27;20074;-76
2022/01/21 03:52:04;;;;;;;19.48;11.35;;;;;;;;;;5105539;27;20847;-75
2022/01/21 03:54:30;;;;;;;27.02;11.43;;;;;;;;;;5100795;27;20055;-78
2022/01/21 03:56:57;;;;;;;18.25;11.07;;;;;;;;;;5102156;27;20122;-76
2022/01/21 03:59:23;;;;;;;20.67;11.45;;;;;;;;;;5084682;27;20048;-84
2022/01/21 04:01:49;;;;;;;24.77;11.68;;;;;;;;;;5100902;27;20057;-73
2022/01/21 04:04:15;;;;;;;17.00;10.25;;;;;;;;;;5097784;27;20051;-78
2022/01/21 04:06:44;;;;;;;17.67;10.98;;;;;;;;;;5103146;27;20056;-80
2022/01/21 04:09:10;;;;;;;15.80;10.25;;;;;;;;;;5107095;27;20047;-76
2022/01/21 04:11:36;;;;;;;15.57;9.85;;;;;;;;;;5105651;27;20369;-78
2022/01/21 04:14:02;;;;;;;14.15;9.98;;;;;;;;;;5100545;28;20406;-72
2022/01/21 04:16:28;;;;;;;16.60;10.57;;;;;;;;;;5105940;27;20050;-66
2022/01/21 04:18:55;;;;;;;16.05;9.60;;;;;;;;;;5104282;27;20054;-72
2022/01/21 04:21:21;;;;;;;16.38;9.60;;;;;;;;;;5106152;27;20058;-71
2022/01/21 04:23:48;;;;;;;21.42;10.75;;;;;;;;;;5101690;28;20050;-66
2022/01/21 04:26:15;;;;;;;17.85;10.23;;;;;;;;;;5105610;28;20055;-73
2022/01/21 04:28:41;;;;;;;15.82;10.43;;;;;;;;;;5087210;28;20043;-73
2022/01/21 04:31:07;;;;;;;15.20;10.30;;;;;;;;;;5106564;28;20168;-70
2022/01/21 04:33:33;;;;;;;13.70;9.40;;;;;;;;;;5100583;28;20055;-79
2022/01/21 04:36:00;;;;;;;17.77;10.18;;;;;;;;;;5107314;27;20147;-65
2022/01/21 04:38:26;;;;;;;19.10;9.18;;;;;;;;;;5105787;28;20119;-65
2022/01/21 04:41:18;;;;;;;16.80;9.13;;;;;;;;;;5088084;28;20071;-74
2022/01/21 04:49:14;;;;;;;13.05;9.23;;;;;;;;;;5105302;27;20568;-73
2022/01/21 04:52:01;;;;;;;14.20;9.23;;;;;;;;;;5105611;27;20043;-70
2022/01/21 04:54:28;;;;;;;17.15;8.20;;;;;;;;;;5100616;27;20102;-69
2022/01/21 04:56:54;;;;;;;12.15;7.03;;;;;;;;;;5104237;28;20079;-63
2022/01/21 04:59:20;;;;;;;16.77;7.40;;;;;;;;;;5104674;27;20148;-66
2022/01/21 05:01:47;;;;;;;13.50;7.38;;;;;;;;;;5101803;28;20055;-72
2022/01/21 05:04:13;;;;;;;10.98;7.10;;;;;;;;;;5102348;27;20044;-69
2022/01/21 05:06:41;;;;;;;12.18;6.85;;;;;;;;;;5103043;28;20073;-75
2022/01/21 05:09:07;;;;;;;12.65;7.40;;;;;;;;;;5086747;27;20055;-74
2022/01/21 05:11:36;;;;;;;15.10;7.35;;;;;;;;;;5103499;27;20544;-78
2022/01/21 05:14:21;;;;;;;10.43;6.82;;;;;;;;;;5104001;27;20054;-80
2022/01/21 05:16:50;;;;;;;13.27;7.13;;;;;;;;;;5106321;27;20104;-62
2022/01/21 05:19:19;;;;;;;15.88;7.13;;;;;;;;;;5086550;27;20774;-66
2022/01/21 05:21:48;;;;;;;13.48;6.95;;;;;;;;;;5103894;27;20104;-78
2022/01/21 05:24:16;;;;;;;9.20;6.68;;;;;;;;;;5100888;27;20178;-63
2022/01/21 05:26:52;;;;;;;14.57;6.80;;;;;;;;;;5104599;27;20055;-76
2022/01/21 05:29:24;;;;;;;13.95;6.47;;;;;;;;;;5106504;27;20074;-75
2022/01/21 05:31:51;;;;;;;14.07;7.57;;;;;;;;;;5104804;27;20116;-73
2022/01/21 05:34:17;;;;;;;13.02;6.80;;;;;;;;;;5104438;27;20061;-65
2022/01/21 05:36:44;;;;;;;15.75;9.30;;;;;;;;;;5104892;27;20097;-67
2022/01/21 05:39:12;;;;;;;19.30;9.70;;;;;;;;;;5105334;27;20055;-73
2022/01/21 05:41:39;;;;;;;15.43;8.93;;;;;;;;;;5108287;27;20043;-78
2022/01/21 05:44:13;;;;;;;16.70;9.85;;;;;;;;;;5100724;27;20161;-74
2022/01/21 05:49:05;;;;;;;13.38;8.55;;;;;;;;;;5108186;27;20502;-74
2022/01/21 05:51:31;;;;;;;17.40;8.52;;;;;;;;;;5108984;27;20065;-70
2022/01/21 05:53:58;;;;;;;13.85;7.47;;;;;;;;;;5102507;27;21642;-64
2022/01/21 05:56:25;;;;;;;15.93;7.40;;;;;;;;;;5092868;27;20066;-78
2022/01/21 05:58:52;;;;;;;16.83;7.70;;;;;;;;;;5093517;27;20082;-78
2022/01/21 06:01:18;;;;;;;17.75;7.97;;;;;;;;;;5096922;27;20506;-65
2022/01/21 06:03:44;;;;;;;12.70;7.57;;;;;;;;;;5096251;27;20051;-67
2022/01/21 06:06:11;;;;;;;21.05;8.02;;;;;;;;;;5077682;27;20062;-76
2022/01/21 06:08:38;;;;;;;13.07;6.80;;;;;;;;;;5098591;27;20070;-67
2022/01/21 06:11:04;;;;;;;15.73;7.63;;;;;;;;;;5098711;27;20141;-76
2022/01/21 06:13:30;;;;;;;10.27;6.70;;;;;;;;;;5076202;27;20066;-79
2022/01/21 06:15:59;;;;;;;12.80;6.85;;;;;;;;;;5099330;27;20047;-79
2022/01/21 06:18:26;;;;;;;11.88;6.00;;;;;;;;;;5099769;27;20055;-77
2022/01/21 06:20:52;;;;;;;11.35;6.53;;;;;;;;;;5079156;27;20051;-77
2022/01/21 06:23:19;;;;;;;11.20;6.15;;;;;;;;;;5098225;27;20120;-68
2022/01/21 06:25:45;;;;;;;11.27;6.47;;;;;;;;;;5094476;27;20633;-76
2022/01/21 06:28:11;;;;;;;13.82;7.25;;;;;;;;;;5096973;27;20075;-83
2022/01/21 06:30:39;;;;;;;15.77;7.78;;;;;;;;;;5096032;27;20440;-71
2022/01/21 06:33:06;;;;;;;15.05;7.28;;;;;;;;;;5093315;27;20506;-80
2022/01/21 06:35:32;;;;;;;13.85;7.63;;;;;;;;;;5098105;27;20107;-78
2022/01/21 06:37:59;;;;;;;14.73;8.52;;;;;;;;;;5092491;27;20061;-65
2022/01/21 06:40:25;;;;;;;25.13;8.65;;;;;;;;;;5077938;27;20446;-74
2022/01/21 06:42:51;;;;;;;17.67;8.88;;;;;;;;;;5092426;27;20057;-74
2022/01/21 06:45:19;;;;;;;15.77;8.88;;;;;;;;;;5097756;27;20087;-64
2022/01/21 06:47:46;;;;;;;15.40;8.35;;;;;;;;;;5093838;27;20563;-76
2022/01/21 06:50:12;;;;;;;14.60;7.47;;;;;;;;;;5098903;27;20058;-68
2022/01/21 06:52:39;;;;;;;16.90;7.63;;;;;;;;;;5097960;27;20073;-76
2022/01/21 06:55:06;;;;;;;11.05;7.50;;;;;;;;;;5096530;27;20772;-81
2022/01/21 06:57:37;;;;;;;17.50;7.93;;;;;;;;;;5095733;27;20043;-74
2022/01/21 07:00:07;;;;;;;12.57;6.85;;;;;;;;;;5096231;27;20158;-83
2022/01/21 07:02:33;;;;;;;15.23;7.07;;;;;;;;;;5094522;27;20075;-79
2022/01/21 07:04:59;;;;;;;13.57;7.53;;;;;;;;;;5098440;27;20809;-72
2022/01/21 07:07:26;;;;;;;17.48;7.80;;;;;;;;;;5101722;27;20071;-71
2022/01/21 07:09:52;;;;;;;12.63;7.10;;;;;;;;;;5105892;27;20048;-73
2022/01/21 07:12:19;;;;;;;13.98;6.75;;;;;;;;;;5098454;27;20059;-65
2022/01/21 07:14:45;;;;;;;11.90;7.40;;;;;;;;;;5096048;27;20075;-73
2022/01/21 07:17:12;;;;;;;15.20;8.73;;;;;;;;;;5099946;27;20383;-72
2022/01/21 07:19:38;;;;;;;21.52;9.27;;;;;;;;;;5098569;27;20070;-81
2022/01/21 07:22:04;;;;;;;17.17;8.48;;;;;;;;;;5096380;27;20051;-75
2022/01/21 07:24:30;;;;;;;19.63;9.00;;;;;;;;;;5094233;27;20640;-75
2022/01/21 07:26:57;;;;;;;22.17;8.93;;;;;;;;;;5094634;27;20501;-71
2022/01/21 07:29:24;;;;;;;18.13;9.85;;;;;;;;;;5095308;27;20067;-69
2022/01/21 07:31:54;;;;;;;23.15;9.50;;;;;;;;;;5097167;27;20055;-73
2022/01/21 07:34:22;;;;;;;20.80;10.02;;;;;;;;;;5095670;27;20079;-73
2022/01/21 07:36:48;;;;;;;24.02;10.00;;;;;;;;;;5095235;27;20464;-66
2022/01/21 07:39:14;;;;;;;25.02;11.00;;;;;;;;;;5097550;27;20071;-78
2022/01/21 07:41:40;;;;;;;22.73;10.15;;;;;;;;;;5096475;27;20436;-78
2022/01/21 07:44:07;;;;;;;26.38;10.57;;;;;;;;;;5091474;27;20054;-74
2022/01/21 07:46:33;;;;;;;26.08;11.25;;;;;;;;;;5095718;27;20054;-79
2022/01/21 07:49:00;;;;;;;20.75;10.02;;;;;;;;;;5103416;27;20538;-74
2022/01/21 07:51:26;;;;;;;23.98;11.43;;;;;;;;;;5105831;27;20287;-79
2022/01/21 07:53:52;;;;;;;23.58;10.43;;;;;;;;;;5100622;27;20051;-73
2022/01/21 07:56:19;;;;;;;21.30;10.43;;;;;;;;;;5105283;27;20044;-68
2022/01/21 07:58:45;;;;;;;23.10;11.48;;;;;;;;;;5105693;27;20039;-82
2022/01/21 08:01:12;;;;;;;29.45;11.52;;;;;;;;;;5101676;27;20533;-67
2022/01/21 08:03:38;;;;;;;29.83;10.38;;;;;;;;;;5097922;27;20127;-75
2022/01/21 08:06:05;;;;;;;32.03;10.85;;;;;;;;;;5098942;27;20423;-76
2022/01/21 08:08:31;;;;;;;26.27;11.13;;;;;;;;;;5103297;27;20058;-71
2022/01/21 08:10:58;;;;;;;22.58;10.85;;;;;;;;;;5110984;27;20044;-71
2022/01/21 08:13:27;;;;;;;28.33;10.75;;;;;;;;;;5115070;27;20354;-66
2022/01/21 08:15:54;;;;;;;30.23;12.63;;;;;;;;;;5116231;28;20377;-68
2022/01/21 08:18:21;;;;;;;30.25;10.48;;;;;;;;;;5093701;28;20093;-81
2022/01/21 08:20:49;;;;;;;25.42;11.07;;;;;;;;;;5097226;28;20055;-67
2022/01/21 08:23:15;;;;;;;29.50;11.10;;;;;;;;;;5113731;28;20171;-72
2022/01/21 08:25:42;;;;;;;21.65;9.23;;;;;;;;;;5112941;28;20040;-72
2022/01/21 08:28:08;;;;;;;34.55;10.18;;;;;;;;;;5110239;28;20394;-75
2022/01/21 08:30:36;;;;;;;22.52;9.70;;;;;;;;;;5111687;28;20461;-76
2022/01/21 08:33:03;;;;;;;27.83;9.70;;;;;;;;;;5112425;28;20478;-69
2022/01/21 08:35:30;;;;;;;18.50;7.43;;;;;;;;;;5112388;28;20055;-71
2022/01/21 08:37:58;;;;;;;24.20;7.85;;;;;;;;;;5114173;27;20091;-72
2022/01/21 08:40:25;;;;;;;23.45;7.70;;;;;;;;;;5114894;28;20047;-68
2022/01/21 08:42:51;;;;;;;25.17;7.70;;;;;;;;;;5108555;27;20095;-73
2022/01/21 08:45:19;;;;;;;25.55;7.50;;;;;;;;;;5115110;27;20133;-76
2022/01/21 08:47:45;;;;;;;19.85;7.03;;;;;;;;;;5116316;27;20078;-70
2022/01/21 08:50:13;;;;;;;18.27;6.55;;;;;;;;;;5115192;27;20070;-74
2022/01/21 08:52:43;;;;;;;23.27;6.90;;;;;;;;;;5121928;27;20403;-76
2022/01/21 08:55:27;;;;;;;16.80;5.57;;;;;;;;;;5102351;27;20108;-73
2022/01/21 08:57:53;;;;;;;11.82;5.35;;;;;;;;;;5118954;27;20051;-67
2022/01/21 09:00:21;;;;;;;20.27;5.55;;;;;;;;;;5115834;27;20053;-68
2022/01/21 09:02:48;;;;;;;14.15;5.88;;;;;;;;;;5125804;27;20065;-67
2022/01/21 09:05:14;;;;;;;15.50;5.35;;;;;;;;;;5116552;27;20130;-68
2022/01/21 09:07:41;;;;;;;15.63;6.00;;;;;;;;;;5115840;27;20104;-74
2022/01/21 09:10:09;;;;;;;15.25;5.35;;;;;;;;;;5092084;27;20492;-79
2022/01/21 09:12:36;;;;;;;17.55;5.80;;;;;;;;;;5115938;27;20184;-69
2022/01/21 09:15:04;;;;;;;23.83;5.88;;;;;;;;;;5128571;27;20043;-68
2022/01/21 09:17:33;;;;;;;13.00;5.78;;;;;;;;;;5133836;27;20046;-69
2022/01/21 09:20:00;;;;;;;17.45;5.00;;;;;;;;;;5135984;27;21063;-68
2022/01/21 09:22:26;;;;;;;16.20;4.68;;;;;;;;;;5134767;27;20108;-68
2022/01/21 09:24:52;;;;;;;13.02;4.50;;;;;;;;;;5132663;27;20507;-70
2022/01/21 09:27:19;;;;;;;8.52;4.35;;;;;;;;;;5126214;27;20051;-72
2022/01/21 09:29:45;;;;;;;8.93;3.83;;;;;;;;;;5134644;27;20070;-69
2022/01/21 09:32:11;;;;;;;11.77;3.80;;;;;;;;;;5135409;27;20047;-69
2022/01/21 09:34:37;;;;;;;17.92;4.18;;;;;;;;;;5127935;27;20054;-68
2022/01/21 09:37:04;;;;;;;20.58;4.00;;;;;;;;;;5104642;27;20055;-70
2022/01/21 09:39:31;;;;;;;12.45;4.40;;;;;;;;;;5129872;27;20048;-68
2022/01/21 09:41:59;;;;;;;17.25;4.75;;;;;;;;;;5115549;28;20051;-66
2022/01/21 09:44:27;;;;;;;18.23;4.28;;;;;;;;;;5124174;27;20055;-71
2022/01/21 09:46:57;;;;;;;11.50;3.80;;;;;;;;;;5116754;27;20067;-73
2022/01/21 09:49:27;;;;;;;14.65;3.75;;;;;;;;;;5120654;27;20139;-72
2022/01/21 09:52:00;;;;;;;7.95;3.22;;;;;;;;;;5120528;27;20063;-71
2022/01/21 09:54:31;;;;;;;14.65;3.55;;;;;;;;;;5120677;27;20055;-73
2022/01/21 09:56:58;;;;;;;17.10;3.50;;;;;;;;;;5126285;27;20090;-71
2022/01/21 09:59:27;;;;;;;13.13;3.90;;;;;;;;;;5108911;27;20056;-77
2022/01/21 10:01:58;;;;;;;14.48;3.70;;;;;;;;;;5125070;27;20460;-70
2022/01/21 10:04:28;;;;;;;11.10;3.90;;;;;;;;;;5123948;27;20458;-70
2022/01/21 10:06:55;;;;;;;8.70;3.20;;;;;;;;;;5119591;27;20106;-72
2022/01/21 10:09:24;;;;;;;21.23;4.07;;;;;;;;;;5115222;27;20039;-71
2022/01/21 10:11:52;;;;;;;7.93;3.45;;;;;;;;;;5120968;27;20052;-70
2022/01/21 10:14:24;;;;;;;13.18;4.10;;;;;;;;;;5114014;28;20053;-69
2022/01/21 10:16:58;;;;;;;5.95;3.58;;;;;;;;;;5116851;27;20479;-69
2022/01/21 10:19:31;;;;;;;10.02;3.45;;;;;;;;;;5122066;27;20043;-68
2022/01/21 10:22:02;;;;;;;11.88;3.42;;;;;;;;;;5114209;27;20101;-69
2022/01/21 10:24:29;;;;;;;9.80;3.97;;;;;;;;;;5104105;27;20058;-67
2022/01/21 10:26:56;;;;;;;19.00;3.65;;;;;;;;;;5118390;27;20055;-68
2022/01/21 10:29:33;;;;;;;8.65;3.45;;;;;;;;;;5100001;27;20051;-69
2022/01/21 10:32:02;;;;;;;10.50;3.35;;;;;;;;;;5122938;27;20052;-71
2022/01/21 10:34:41;;;;;;;7.05;3.20;;;;;;;;;;5131479;27;20510;-69
2022/01/21 10:37:34;;;;;;;15.13;3.60;;;;;;;;;;5113307;27;20256;-70
2022/01/21 10:40:08;;;;;;;7.38;3.35;;;;;;;;;;5112698;28;20087;-67
2022/01/21 10:42:34;;;;;;;7.53;2.88;;;;;;;;;;5095393;27;20047;-74
2022/01/21 10:45:02;;;;;;;7.35;3.30;;;;;;;;;;5114851;27;20055;-67
2022/01/21 10:47:34;;;;;;;6.97;2.92;;;;;;;;;;5097482;27;20051;-77
2022/01/21 10:50:06;;;;;;;8.30;2.88;;;;;;;;;;5117714;27;20058;-71
2022/01/21 10:52:38;;;;;;;6.60;3.00;;;;;;;;;;5111922;27;20463;-72
2022/01/21 10:55:25;;;;;;;15.65;3.38;;;;;;;;;;5123877;27;20075;-68
2022/01/21 10:58:13;;;;;;;7.85;3.40;;;;;;;;;;5115528;27;20456;-68
2022/01/21 11:00:59;;;;;;;8.30;3.20;;;;;;;;;;5132528;27;20130;-68
2022/01/21 11:03:31;;;;;;;10.73;3.10;;;;;;;;;;5114518;27;20518;-78
2022/01/21 11:06:17;;;;;;;12.25;3.15;;;;;;;;;;5099396;27;20137;-67
2022/01/21 11:08:43;;;;;;;6.18;3.05;;;;;;;;;;5092012;28;20141;-69
2022/01/21 11:11:10;;;;;;;16.33;3.08;;;;;;;;;;5093603;28;20105;-67
2022/01/21 11:13:38;;;;;;;6.60;2.50;;;;;;;;;;5091735;28;20058;-68
2022/01/21 11:16:20;;;;;;;5.97;2.70;;;;;;;;;;5105974;28;20070;-69
2022/01/21 11:18:50;;;;;;;8.75;2.20;;;;;;;;;;5110908;28;20054;-68
2022/01/21 11:21:16;;;;;;;4.22;2.10;;;;;;;;;;5092927;28;20063;-69
2022/01/21 11:23:42;;;;;;;10.75;2.30;;;;;;;;;;5092965;28;20121;-69
2022/01/21 11:26:09;;;;;;;6.40;1.95;;;;;;;;;;5113001;28;20079;-68
2022/01/21 11:28:39;;;;;;;2.85;1.70;;;;;;;;;;5108111;28;20109;-68
2022/01/21 11:31:07;;;;;;;5.00;1.58;;;;;;;;;;5091695;28;20072;-66
2022/01/21 11:33:34;;;;;;;4.30;1.90;;;;;;;;;;5092837;28;20118;-67
2022/01/21 11:36:02;;;;;;;3.85;1.77;;;;;;;;;;5076997;28;20044;-70
2022/01/21 11:38:36;;;;;;;3.53;1.50;;;;;;;;;;5095014;28;20353;-68
2022/01/21 11:41:07;;;;;;;4.68;1.40;;;;;;;;;;5109661;28;20160;-71
2022/01/21 11:43:35;;;;;;;3.25;1.50;;;;;;;;;;5091046;28;20052;-76
2022/01/21 11:48:50;;;;;;;4.40;1.30;;;;;;;;;;5096500;28;20056;-69
2022/01/21 11:51:22;;;;;;;5.22;1.17;;;;;;;;;;5112273;28;20085;-67
2022/01/21 11:53:54;;;;;;;2.03;1.40;;;;;;;;;;5113127;28;20434;-68
2022/01/21 11:56:32;;;;;;;2.03;1.30;;;;;;;;;;5113460;28;20097;-70
2022/01/21 11:59:30;;;;;;;6.28;1.45;;;;;;;;;;5111510;28;20082;-71
2022/01/21 12:01:58;;;;;;;3.38;1.55;;;;;;;;;;5096604;28;20380;-69
2022/01/21 12:04:30;;;;;;;3.92;1.63;;;;;;;;;;5100285;28;20074;-68
2022/01/21 12:06:58;;;;;;;4.97;2.15;;;;;;;;;;5090950;28;20116;-68
2022/01/21 12:10:03;;;;;;;3.10;1.70;;;;;;;;;;5101461;28;20412;-69
2022/01/21 12:12:49;;;;;;;4.00;1.50;;;;;;;;;;5055639;28;20152;-74
2022/01/21 12:15:23;;;;;;;5.03;2.25;;;;;;;;;;5063923;28;20052;-68
2022/01/21 12:17:56;;;;;;;7.10;1.42;;;;;;;;;;5063858;28;20045;-68
2022/01/21 12:20:35;;;;;;;2.20;1.73;;;;;;;;;;5050291;28;20074;-70
2022/01/21 12:23:14;;;;;;;5.35;2.05;;;;;;;;;;5073424;28;20096;-69
2022/01/21 12:26:14;;;;;;;5.60;1.90;;;;;;;;;;5077805;28;20143;-68
2022/01/21 12:28:41;;;;;;;6.07;2.10;;;;;;;;;;5072348;28;20052;-66
2022/01/21 12:31:10;;;;;;;6.57;2.60;;;;;;;;;;5053281;28;20060;-70
2022/01/21 12:36:31;;;;;;;8.10;1.60;;;;;;;;;;5056626;28;20071;-68
2022/01/21 12:41:25;;;;;;;5.30;1.42;;;;;;;;;;5052923;28;20498;-67
2022/01/21 12:43:53;;;;;;;7.65;2.05;;;;;;;;;;5099797;28;20047;-69
2022/01/21 12:46:30;;;;;;;2.85;1.63;;;;;;;;;;5103821;28;20056;-71
2022/01/21 12:49:01;;;;;;;6.50;2.20;;;;;;;;;;5091588;28;20040;-67
2022/01/21 12:56:47;;;;;;;6.60;1.70;;;;;;;;;;5112279;28;20067;-67
2022/01/21 12:59:22;;;;;;;2.25;1.25;;;;;;;;;;5112623;28;20063;-68
2022/01/21 13:01:51;;;;;;;3.47;1.10;;;;;;;;;;5112258;28;20126;-68
2022/01/21 13:04:45;;;;;;;7.40;1.70;;;;;;;;;;5093637;28;20170;-69
2022/01/21 13:07:16;;;;;;;3.83;1.30;;;;;;;;;;5091509;28;20048;-68
2022/01/21 13:10:17;;;;;;;3.55;1.65;;;;;;;;;;5092915;28;20082;-69
2022/01/21 13:15:55;;;;;;;3.70;1.90;;;;;;;;;;5092359;28;20028;-70
2022/01/21 13:18:31;;;;;;;3.95;1.58;;;;;;;;;;5091046;28;20334;-68
2022/01/21 13:21:01;;;;;;;3.92;1.90;;;;;;;;;;5090547;28;20055;-68
2022/01/21 13:23:56;;;;;;;2.95;1.65;;;;;;;;;;5090256;28;20518;-68
2022/01/21 13:26:31;;;;;;;7.35;2.08;;;;;;;;;;5074142;28;20040;-68
2022/01/21 13:29:09;;;;;;;4.63;1.50;;;;;;;;;;5090314;28;20044;-69
2022/01/21 13:31:57;;;;;;;3.50;1.70;;;;;;;;;;5077363;28;20178;-71
2022/01/21 13:34:31;;;;;;;5.25;1.80;;;;;;;;;;5090469;28;20048;-70
2022/01/21 13:36:59;;;;;;;5.28;1.88;;;;;;;;;;5077926;28;20505;-69
2022/01/21 13:39:41;;;;;;;5.30;2.25;;;;;;;;;;5095590;28;20079;-71
2022/01/21 13:42:16;;;;;;;3.08;1.88;;;;;;;;;;5095639;28;20051;-71
2022/01/21 13:44:49;;;;;;;5.90;1.90;;;;;;;;;;5094999;28;20063;-69
2022/01/21 13:47:23;;;;;;;6.50;2.47;;;;;;;;;;5076739;28;20048;-69
2022/01/21 13:49:51;;;;;;;6.40;2.53;;;;;;;;;;5086008;28;20052;-70
2022/01/21 13:52:17;;;;;;;6.75;2.17;;;;;;;;;;5079215;28;20048;-74
2022/01/21 13:54:45;;;;;;;4.95;2.10;;;;;;;;;;5043217;28;20443;-83
2022/01/21 13:57:12;;;;;;;5.05;1.92;;;;;;;;;;5080531;28;20110;-73
2022/01/21 13:59:46;;;;;;;5.05;2.00;;;;;;;;;;5080079;28;20146;-72
2022/01/21 14:02:15;;;;;;;4.70;1.85;;;;;;;;;;5076039;28;20626;-78
2022/01/21 14:04:57;;;;;;;6.47;1.80;;;;;;;;;;5077400;28;20072;-74
2022/01/21 14:07:30;;;;;;;5.03;2.13;;;;;;;;;;5098833;28;20544;-76
2022/01/21 14:09:58;;;;;;;12.80;2.30;;;;;;;;;;5096649;28;20052;-68
2022/01/21 14:12:25;;;;;;;5.35;2.20;;;;;;;;;;5095396;28;20052;-69
2022/01/21 14:32:55;;;;;;;6.63;1.15;;;;;;;;;;5173677;22;20558;-70
2022/01/21 14:35:27;;;;;;;3.63;1.00;;;;;;;;;;5052438;28;20065;-68
2022/01/21 14:38:07;;;;;;;3.05;0.90;;;;;;;;;;5045876;28;20065;-71
2022/01/21 14:40:36;;;;;;;3.35;1.20;;;;;;;;;;4999370;28;20049;-69
2022/01/21 14:43:10;;;;;;;3.17;1.08;;;;;;;;;;5017674;28;20087;-69
2022/01/21 14:45:41;;;;;;;4.65;1.05;;;;;;;;;;5036656;28;20132;-70
2022/01/21 14:48:16;;;;;;;6.93;1.42;;;;;;;;;;5042827;28;20505;-68
2022/01/21 14:50:42;;;;;;;3.50;1.08;;;;;;;;;;5025642;28;20072;-68
2022/01/21 14:53:11;;;;;;;4.28;1.30;;;;;;;;;;5033266;28;20049;-68
2022/01/21 14:55:39;;;;;;;3.40;1.40;;;;;;;;;;5015980;28;20128;-70
2022/01/21 14:58:14;;;;;;;3.85;1.33;;;;;;;;;;5035112;28;20049;-68
2022/01/21 15:00:49;;;;;;;2.42;1.17;;;;;;;;;;5024027;28;20100;-74
2022/01/21 15:03:30;;;;;;;5.28;1.23;;;;;;;;;;5022002;28;20053;-73
2022/01/21 15:06:19;;;;;;;2.15;0.93;;;;;;;;;;5053143;28;20182;-70
2022/01/21 15:08:57;;;;;;;2.85;1.00;;;;;;;;;;5035164;28;20063;-68
2022/01/21 15:16:54;;;;;;;1.33;1.00;;;;;;;;;;5022062;28;20135;-68
2022/01/21 15:19:40;;;;;;;4.38;2.20;;;;;;;;;;5016946;28;20136;-69
2022/01/21 15:22:11;;;;;;;2.00;1.30;;;;;;;;;;5035118;28;20132;-67
2022/01/21 15:24:40;;;;;;;6.55;1.33;;;;;;;;;;5050683;28;20053;-68
2022/01/21 15:27:07;;;;;;;5.47;1.52;;;;;;;;;;5035009;28;20061;-72
2022/01/21 15:29:35;;;;;;;1.88;1.00;;;;;;;;;;5037653;28;20049;-74
2022/01/21 15:32:05;;;;;;;1.80;1.00;;;;;;;;;;5043271;28;20076;-69
2022/01/21 15:34:32;;;;;;;2.85;1.20;;;;;;;;;;5043854;28;20071;-70
2022/01/21 15:36:58;;;;;;;4.75;1.30;;;;;;;;;;5035733;28;20045;-68
2022/01/21 15:39:25;;;;;;;3.42;1.00;;;;;;;;;;5028201;28;20566;-71
2022/01/21 15:41:51;;;;;;;2.63;1.17;;;;;;;;;;5026867;28;20048;-68
2022/01/21 15:44:17;;;;;;;3.65;1.60;;;;;;;;;;5038121;28;20405;-76
2022/01/21 15:46:44;;;;;;;4.88;1.70;;;;;;;;;;5011489;28;20056;-77
2022/01/21 15:49:12;;;;;;;4.40;2.13;;;;;;;;;;5024524;28;20466;-77
2022/01/21 15:51:39;;;;;;;4.28;1.27;;;;;;;;;;5006765;28;20582;-69
2022/01/21 15:54:06;;;;;;;4.13;1.48;;;;;;;;;;5023353;28;20085;-71
2022/01/21 15:56:32;;;;;;;3.75;1.20;;;;;;;;;;5029647;28;21123;-71
2022/01/21 15:58:59;;;;;;;4.63;1.50;;;;;;;;;;5008496;28;20395;-68
2022/01/21 16:01:26;;;;;;;5.32;1.70;;;;;;;;;;5026520;28;20504;-76
2022/01/21 16:03:54;;;;;;;4.93;1.30;;;;;;;;;;5004983;28;20139;-73
2022/01/21 16:06:21;;;;;;;2.63;1.33;;;;;;;;;;5025888;28;20057;-70
2022/01/21 16:08:48;;;;;;;3.35;1.30;;;;;;;;;;5025131;28;20151;-69
2022/01/21 16:11:14;;;;;;;2.42;1.40;;;;;;;;;;5027400;28;20110;-83
2022/01/21 16:13:41;;;;;;;6.00;2.25;;;;;;;;;;5023341;28;20042;-70
2022/01/21 16:16:07;;;;;;;6.47;1.70;;;;;;;;;;5009133;28;20061;-78
2022/01/21 16:18:35;;;;;;;3.78;1.60;;;;;;;;;;5025931;28;20065;-79